Time;durP1;ratioP1;P1;durP2;ratioP2;P2;SDS_P1;SDS_P2;PMS_P1;PMS_P2;Temp;Humidity;BMP_temperature;BMP_pressure;BME280_temperature;BME280_humidity;BME280_pressure;Samples;Min_cycle;Max_cycle;Signal;HPM_P1;HPM_P2
2024/01/28 00:01:32;;;;;;;10.20;6.70;;;;;;;;;;5059526;28;20208;-68
2024/01/28 00:03:58;;;;;;;8.07;6.30;;;;;;;;;;5065843;28;20273;-69
2024/01/28 00:06:24;;;;;;;9.43;6.00;;;;;;;;;;5066074;28;20647;-68
2024/01/28 00:08:51;;;;;;;11.43;6.45;;;;;;;;;;5051041;28;20208;-69
2024/01/28 00:11:18;;;;;;;9.82;5.80;;;;;;;;;;5065763;28;20204;-69
2024/01/28 00:13:44;;;;;;;9.23;5.72;;;;;;;;;;5069070;28;20273;-68
2024/01/28 00:16:13;;;;;;;10.95;5.97;;;;;;;;;;5071704;28;20270;-68
2024/01/28 00:18:39;;;;;;;8.85;6.32;;;;;;;;;;5051884;28;20201;-68
2024/01/28 00:21:07;;;;;;;12.55;6.32;;;;;;;;;;5051397;28;20201;-69
2024/01/28 00:23:33;;;;;;;7.85;5.57;;;;;;;;;;5050570;28;20266;-69
2024/01/28 00:26:01;;;;;;;11.55;5.97;;;;;;;;;;5050831;28;20217;-69
2024/01/28 00:28:29;;;;;;;11.35;6.07;;;;;;;;;;5050808;28;20203;-69
2024/01/28 00:30:55;;;;;;;7.38;5.63;;;;;;;;;;5050596;28;20205;-69
2024/01/28 00:33:22;;;;;;;8.57;6.05;;;;;;;;;;5050319;28;20219;-69
2024/01/28 00:36:16;;;;;;;11.75;5.50;;;;;;;;;;5050754;28;20220;-69
2024/01/28 00:38:42;;;;;;;9.77;5.40;;;;;;;;;;5050230;28;20292;-69
2024/01/28 00:41:08;;;;;;;9.35;5.10;;;;;;;;;;5049386;28;20614;-69
2024/01/28 00:43:36;;;;;;;7.13;5.05;;;;;;;;;;5049241;28;20197;-69
2024/01/28 00:46:02;;;;;;;7.63;5.03;;;;;;;;;;5049388;28;20225;-69
2024/01/28 00:48:28;;;;;;;9.15;5.05;;;;;;;;;;5049149;28;20508;-69
2024/01/28 00:50:55;;;;;;;9.20;5.45;;;;;;;;;;5050316;28;20650;-69
2024/01/28 00:53:21;;;;;;;6.40;5.20;;;;;;;;;;5050397;28;20569;-69
2024/01/28 00:55:47;;;;;;;7.95;5.35;;;;;;;;;;5051556;28;20241;-69
2024/01/28 00:58:14;;;;;;;9.52;5.80;;;;;;;;;;5051497;28;20669;-69
2024/01/28 01:00:41;;;;;;;7.57;5.25;;;;;;;;;;5054567;28;20736;-69
2024/01/28 01:03:08;;;;;;;11.65;5.57;;;;;;;;;;5055279;28;20216;-69
2024/01/28 01:05:34;;;;;;;7.35;5.22;;;;;;;;;;5055420;28;20229;-69
2024/01/28 01:08:00;;;;;;;8.20;5.40;;;;;;;;;;5056931;28;20205;-70
2024/01/28 01:10:27;;;;;;;9.38;5.63;;;;;;;;;;5058796;28;20231;-69
2024/01/28 01:12:53;;;;;;;11.45;5.65;;;;;;;;;;5058584;28;20197;-69
2024/01/28 01:15:19;;;;;;;11.13;6.47;;;;;;;;;;5054839;28;20692;-69
2024/01/28 01:17:49;;;;;;;10.95;7.15;;;;;;;;;;5055064;28;20197;-69
2024/01/28 01:20:17;;;;;;;11.15;6.53;;;;;;;;;;5055134;28;20224;-69
2024/01/28 01:22:43;;;;;;;12.05;7.30;;;;;;;;;;5055010;28;20197;-69
2024/01/28 01:25:10;;;;;;;15.45;8.00;;;;;;;;;;5054691;28;20690;-69
2024/01/28 01:27:36;;;;;;;11.57;8.18;;;;;;;;;;5054941;28;20201;-69
2024/01/28 01:30:03;;;;;;;12.52;8.77;;;;;;;;;;5054414;28;20205;-69
2024/01/28 01:32:29;;;;;;;15.18;8.68;;;;;;;;;;5054400;28;20200;-69
2024/01/28 01:34:57;;;;;;;13.77;9.15;;;;;;;;;;5054607;28;20644;-70
2024/01/28 01:37:23;;;;;;;16.25;9.60;;;;;;;;;;5054783;28;20216;-69
2024/01/28 01:39:49;;;;;;;10.27;8.40;;;;;;;;;;5054628;28;20197;-69
2024/01/28 01:42:15;;;;;;;11.60;8.35;;;;;;;;;;5054220;28;20205;-69
2024/01/28 01:44:42;;;;;;;14.63;8.82;;;;;;;;;;5055182;28;20308;-69
2024/01/28 01:47:08;;;;;;;11.52;8.57;;;;;;;;;;5054747;28;20225;-69
2024/01/28 01:49:35;;;;;;;12.77;8.77;;;;;;;;;;5054402;28;20209;-69
2024/01/28 01:52:03;;;;;;;12.60;8.95;;;;;;;;;;5054845;28;20262;-69
2024/01/28 01:54:29;;;;;;;16.85;8.82;;;;;;;;;;5054074;28;20197;-69
2024/01/28 01:56:56;;;;;;;13.52;9.00;;;;;;;;;;5054190;28;20217;-69
2024/01/28 01:59:23;;;;;;;14.05;8.95;;;;;;;;;;5053953;28;20205;-69
2024/01/28 02:01:49;;;;;;;15.38;8.98;;;;;;;;;;5054449;28;20202;-69
2024/01/28 02:04:16;;;;;;;11.80;8.50;;;;;;;;;;5053881;28;20217;-69
2024/01/28 02:06:42;;;;;;;11.77;8.48;;;;;;;;;;5054105;28;20248;-69
2024/01/28 02:09:10;;;;;;;11.25;8.27;;;;;;;;;;5054025;28;20204;-69
2024/01/28 02:11:36;;;;;;;14.10;8.45;;;;;;;;;;5054061;28;20209;-69
2024/01/28 02:14:03;;;;;;;14.20;8.85;;;;;;;;;;5053347;28;20213;-69
2024/01/28 02:16:29;;;;;;;12.18;7.72;;;;;;;;;;5053971;28;20721;-69
2024/01/28 02:18:55;;;;;;;15.88;8.48;;;;;;;;;;5053637;28;20231;-69
2024/01/28 02:21:21;;;;;;;17.40;9.38;;;;;;;;;;5054237;28;20635;-69
2024/01/28 02:23:49;;;;;;;15.57;9.35;;;;;;;;;;5053614;28;20345;-69
2024/01/28 02:26:15;;;;;;;14.70;8.77;;;;;;;;;;5053464;28;20233;-69
2024/01/28 02:28:42;;;;;;;12.95;9.52;;;;;;;;;;5053651;28;20208;-70
2024/01/28 02:31:08;;;;;;;14.32;9.35;;;;;;;;;;5054094;28;20205;-70
2024/01/28 02:33:34;;;;;;;11.88;9.25;;;;;;;;;;5053969;28;20574;-70
2024/01/28 02:36:01;;;;;;;14.93;9.25;;;;;;;;;;5072568;28;20224;-70
2024/01/28 02:38:27;;;;;;;14.45;9.32;;;;;;;;;;5071686;28;20196;-69
2024/01/28 02:40:55;;;;;;;16.48;9.48;;;;;;;;;;5072453;28;20201;-69
2024/01/28 02:43:21;;;;;;;19.38;9.30;;;;;;;;;;5072886;28;20257;-69
2024/01/28 02:45:48;;;;;;;19.65;9.32;;;;;;;;;;5066875;28;20225;-69
2024/01/28 02:48:14;;;;;;;12.32;8.90;;;;;;;;;;5067711;28;20224;-70
2024/01/28 02:50:40;;;;;;;17.10;8.98;;;;;;;;;;5071395;28;20223;-69
2024/01/28 02:53:06;;;;;;;12.63;8.05;;;;;;;;;;5072604;28;20204;-69
2024/01/28 02:55:34;;;;;;;13.18;9.05;;;;;;;;;;5056131;28;20278;-69
2024/01/28 02:58:02;;;;;;;12.43;8.40;;;;;;;;;;5068019;28;20212;-70
2024/01/28 03:00:29;;;;;;;17.85;9.23;;;;;;;;;;5062526;28;20201;-69
2024/01/28 03:02:55;;;;;;;11.20;7.88;;;;;;;;;;5069803;28;20201;-70
2024/01/28 03:05:21;;;;;;;11.25;8.02;;;;;;;;;;5067867;28;20233;-69
2024/01/28 03:07:48;;;;;;;12.70;8.18;;;;;;;;;;5067997;28;20201;-70
2024/01/28 03:10:14;;;;;;;8.88;7.75;;;;;;;;;;5060246;28;20224;-69
2024/01/28 03:12:40;;;;;;;17.40;8.77;;;;;;;;;;5067282;28;20694;-69
2024/01/28 03:15:09;;;;;;;12.40;8.32;;;;;;;;;;5068675;28;20630;-69
2024/01/28 03:17:35;;;;;;;10.80;8.60;;;;;;;;;;5066716;28;20210;-69
2024/01/28 03:20:02;;;;;;;14.48;8.98;;;;;;;;;;5054633;28;20209;-69
2024/01/28 03:22:28;;;;;;;12.15;8.43;;;;;;;;;;5052835;28;20725;-70
2024/01/28 03:24:55;;;;;;;12.52;8.75;;;;;;;;;;5052672;28;20219;-70
2024/01/28 03:27:21;;;;;;;14.45;9.52;;;;;;;;;;5054621;28;20228;-71
2024/01/28 03:29:47;;;;;;;16.10;9.15;;;;;;;;;;5053842;28;20255;-69
2024/01/28 03:32:15;;;;;;;14.50;9.30;;;;;;;;;;5053611;28;20207;-69
2024/01/28 03:34:41;;;;;;;14.73;9.00;;;;;;;;;;5052628;28;20201;-69
2024/01/28 03:37:07;;;;;;;16.00;9.43;;;;;;;;;;5052538;28;20233;-69
2024/01/28 03:39:36;;;;;;;16.02;9.20;;;;;;;;;;5052296;28;20204;-69
2024/01/28 03:42:03;;;;;;;14.48;9.10;;;;;;;;;;5052327;28;20708;-70
2024/01/28 03:44:29;;;;;;;12.73;8.40;;;;;;;;;;5052386;28;20212;-70
2024/01/28 03:46:56;;;;;;;13.32;8.23;;;;;;;;;;5052533;28;20224;-70
2024/01/28 03:49:23;;;;;;;12.68;8.43;;;;;;;;;;5051956;28;20212;-70
2024/01/28 03:51:49;;;;;;;12.05;9.02;;;;;;;;;;5052526;28;20262;-69
2024/01/28 03:54:16;;;;;;;12.27;8.50;;;;;;;;;;5051749;28;20197;-69
2024/01/28 03:56:42;;;;;;;12.85;8.35;;;;;;;;;;5052249;28;20224;-69
2024/01/28 03:59:08;;;;;;;14.57;8.73;;;;;;;;;;5052300;28;20197;-70
2024/01/28 04:01:34;;;;;;;13.25;7.82;;;;;;;;;;5052740;28;20306;-70
2024/01/28 04:04:00;;;;;;;12.25;8.10;;;;;;;;;;5052437;28;20201;-70
2024/01/28 04:06:28;;;;;;;14.65;8.45;;;;;;;;;;5052176;28;20221;-69
2024/01/28 04:08:55;;;;;;;13.60;8.20;;;;;;;;;;5052138;28;20205;-69
2024/01/28 04:11:23;;;;;;;10.75;7.75;;;;;;;;;;5052170;28;20250;-69
2024/01/28 04:13:49;;;;;;;12.07;8.82;;;;;;;;;;5051801;28;20213;-69
2024/01/28 04:16:15;;;;;;;10.90;8.32;;;;;;;;;;5051793;28;20217;-69
2024/01/28 04:18:42;;;;;;;13.35;8.50;;;;;;;;;;5052039;28;20208;-69
2024/01/28 04:21:09;;;;;;;10.27;8.20;;;;;;;;;;5051932;28;20262;-70
2024/01/28 04:23:39;;;;;;;13.73;8.63;;;;;;;;;;5052027;28;20251;-70
2024/01/28 04:26:05;;;;;;;13.18;8.82;;;;;;;;;;5052135;28;20217;-70
2024/01/28 04:28:31;;;;;;;10.35;7.38;;;;;;;;;;5051683;28;20200;-70
2024/01/28 04:30:58;;;;;;;13.63;7.97;;;;;;;;;;5051934;28;20201;-70
2024/01/28 04:33:24;;;;;;;11.52;7.88;;;;;;;;;;5053029;28;20291;-70
2024/01/28 04:35:50;;;;;;;10.82;8.05;;;;;;;;;;5069013;28;20212;-70
2024/01/28 04:38:17;;;;;;;10.27;7.22;;;;;;;;;;5076127;28;20660;-70
2024/01/28 04:40:44;;;;;;;10.68;7.85;;;;;;;;;;5075708;28;20621;-69
2024/01/28 04:43:10;;;;;;;12.38;7.88;;;;;;;;;;5075913;28;20196;-69
2024/01/28 04:45:37;;;;;;;11.20;7.93;;;;;;;;;;5075683;28;20256;-70
2024/01/28 04:48:04;;;;;;;12.25;7.32;;;;;;;;;;5076105;28;20196;-69
2024/01/28 04:50:30;;;;;;;10.63;7.32;;;;;;;;;;5075601;28;20231;-70
2024/01/28 04:52:56;;;;;;;13.00;7.80;;;;;;;;;;5075582;28;20254;-70
2024/01/28 04:55:23;;;;;;;11.45;7.32;;;;;;;;;;5075727;28;20263;-70
2024/01/28 04:57:51;;;;;;;8.55;6.78;;;;;;;;;;5075726;28;20287;-70
2024/01/28 05:00:17;;;;;;;13.30;7.20;;;;;;;;;;5075503;28;20314;-70
2024/01/28 05:02:44;;;;;;;10.02;6.80;;;;;;;;;;5075280;28;20205;-70
2024/01/28 05:05:10;;;;;;;7.80;6.68;;;;;;;;;;5075763;28;20223;-70
2024/01/28 05:07:36;;;;;;;8.95;6.90;;;;;;;;;;5076376;28;20204;-70
2024/01/28 05:10:04;;;;;;;9.30;6.55;;;;;;;;;;5075511;28;20205;-70
2024/01/28 05:12:30;;;;;;;8.95;6.53;;;;;;;;;;5075560;28;20205;-70
2024/01/28 05:14:58;;;;;;;9.15;7.10;;;;;;;;;;5091368;28;20234;-70
2024/01/28 05:17:24;;;;;;;8.68;6.15;;;;;;;;;;5097207;28;20284;-70
2024/01/28 05:19:50;;;;;;;12.00;7.22;;;;;;;;;;5096444;28;20226;-70
2024/01/28 05:22:19;;;;;;;10.68;7.07;;;;;;;;;;5080539;28;20207;-70
2024/01/28 05:24:49;;;;;;;12.00;7.32;;;;;;;;;;5074706;28;20205;-70
2024/01/28 05:27:15;;;;;;;11.82;7.70;;;;;;;;;;5074843;28;20224;-70
2024/01/28 05:29:42;;;;;;;11.25;7.82;;;;;;;;;;5074418;28;20197;-70
2024/01/28 05:32:09;;;;;;;12.50;7.63;;;;;;;;;;5074492;28;20612;-70
2024/01/28 05:34:36;;;;;;;10.77;7.55;;;;;;;;;;5074620;28;20211;-70
2024/01/28 05:37:02;;;;;;;13.25;7.72;;;;;;;;;;5074906;28;20220;-70
2024/01/28 05:39:28;;;;;;;14.15;8.82;;;;;;;;;;5074674;28;20204;-70
2024/01/28 05:41:55;;;;;;;11.63;8.98;;;;;;;;;;5076287;28;20196;-71
2024/01/28 05:44:21;;;;;;;12.77;8.38;;;;;;;;;;5077793;28;20254;-71
2024/01/28 05:46:47;;;;;;;13.63;8.95;;;;;;;;;;5075411;28;20220;-70
2024/01/28 05:49:15;;;;;;;13.05;8.57;;;;;;;;;;5074348;28;20211;-70
2024/01/28 05:51:41;;;;;;;16.20;10.52;;;;;;;;;;5074597;28;20257;-70
2024/01/28 05:54:07;;;;;;;15.05;9.10;;;;;;;;;;5074719;28;20219;-70
2024/01/28 05:56:34;;;;;;;17.38;10.02;;;;;;;;;;5074236;28;20224;-71
2024/01/28 05:59:00;;;;;;;11.30;9.20;;;;;;;;;;5073773;28;20598;-71
2024/01/28 06:01:26;;;;;;;15.77;9.88;;;;;;;;;;5074383;28;20205;-71
2024/01/28 06:03:52;;;;;;;13.02;9.60;;;;;;;;;;5073969;28;20723;-71
2024/01/28 06:06:20;;;;;;;14.35;10.02;;;;;;;;;;5073981;28;20685;-70
2024/01/28 06:08:46;;;;;;;12.27;8.75;;;;;;;;;;5074056;28;20197;-70
2024/01/28 06:11:12;;;;;;;16.65;9.02;;;;;;;;;;5074183;28;20208;-70
2024/01/28 06:13:39;;;;;;;13.23;9.25;;;;;;;;;;5073605;28;20228;-70
2024/01/28 06:16:06;;;;;;;10.18;8.43;;;;;;;;;;5074268;28;20220;-70
2024/01/28 06:18:32;;;;;;;15.15;8.85;;;;;;;;;;5072179;28;20287;-70
2024/01/28 06:20:58;;;;;;;14.95;8.93;;;;;;;;;;5074107;28;20203;-71
2024/01/28 06:23:26;;;;;;;13.60;9.90;;;;;;;;;;5073909;28;20208;-71
2024/01/28 06:25:52;;;;;;;18.85;9.90;;;;;;;;;;5074161;28;20248;-71
2024/01/28 06:28:19;;;;;;;13.70;9.68;;;;;;;;;;5073923;28;20223;-71
2024/01/28 06:30:45;;;;;;;14.13;9.23;;;;;;;;;;5073478;28;20617;-71
2024/01/28 06:33:13;;;;;;;13.20;9.27;;;;;;;;;;5073533;28;20291;-71
2024/01/28 06:35:39;;;;;;;13.20;8.63;;;;;;;;;;5073980;28;20259;-71
2024/01/28 06:38:05;;;;;;;14.40;9.57;;;;;;;;;;5073991;28;20216;-71
2024/01/28 06:40:33;;;;;;;14.13;8.95;;;;;;;;;;5072638;28;20205;-60
2024/01/28 06:42:59;;;;;;;11.95;8.52;;;;;;;;;;5072569;28;20291;-60
2024/01/28 06:45:25;;;;;;;11.82;8.80;;;;;;;;;;5072702;28;20795;-60
2024/01/28 06:47:52;;;;;;;15.40;9.30;;;;;;;;;;5072954;28;20220;-59
2024/01/28 06:50:19;;;;;;;14.32;9.50;;;;;;;;;;5072333;28;20207;-60
2024/01/28 06:52:45;;;;;;;15.55;10.05;;;;;;;;;;5072336;28;20665;-60
2024/01/28 06:55:11;;;;;;;14.77;10.00;;;;;;;;;;5072490;28;20719;-60
2024/01/28 06:57:39;;;;;;;13.32;9.60;;;;;;;;;;5071714;28;20197;-60
2024/01/28 07:00:10;;;;;;;16.80;9.77;;;;;;;;;;5072270;28;20341;-60
2024/01/28 07:02:36;;;;;;;19.73;10.25;;;;;;;;;;5072158;28;20737;-60
2024/01/28 07:05:02;;;;;;;16.25;10.18;;;;;;;;;;5072386;28;20669;-60
2024/01/28 07:07:28;;;;;;;13.45;9.70;;;;;;;;;;5071925;28;20629;-60
2024/01/28 07:09:55;;;;;;;13.77;9.70;;;;;;;;;;5072276;28;20233;-60
2024/01/28 07:12:21;;;;;;;14.57;9.38;;;;;;;;;;5072019;28;20661;-61
2024/01/28 07:14:48;;;;;;;10.95;9.13;;;;;;;;;;5072167;28;20735;-60
2024/01/28 07:17:15;;;;;;;13.10;9.77;;;;;;;;;;5072117;28;20224;-60
2024/01/28 07:19:41;;;;;;;19.17;9.95;;;;;;;;;;5071955;28;20201;-60
2024/01/28 07:22:10;;;;;;;18.30;9.75;;;;;;;;;;5072391;28;20249;-60
2024/01/28 07:24:36;;;;;;;14.27;10.10;;;;;;;;;;5071886;28;20197;-60
2024/01/28 07:27:03;;;;;;;17.33;9.73;;;;;;;;;;5072151;28;20224;-60
2024/01/28 07:29:29;;;;;;;11.73;10.18;;;;;;;;;;5071789;28;20208;-60
2024/01/28 07:31:57;;;;;;;15.32;9.60;;;;;;;;;;5072037;28;20291;-59
2024/01/28 07:34:23;;;;;;;15.35;10.43;;;;;;;;;;5071597;28;20250;-59
2024/01/28 07:36:51;;;;;;;21.33;10.95;;;;;;;;;;5072070;28;20221;-60
2024/01/28 07:39:17;;;;;;;13.93;10.45;;;;;;;;;;5071923;28;20211;-60
2024/01/28 07:41:43;;;;;;;17.90;11.13;;;;;;;;;;5071919;28;20197;-60
2024/01/28 07:44:09;;;;;;;20.48;11.00;;;;;;;;;;5071748;28;20204;-59
2024/01/28 07:46:37;;;;;;;18.40;11.85;;;;;;;;;;5071830;28;20220;-60
2024/01/28 07:49:04;;;;;;;16.48;10.73;;;;;;;;;;5071764;28;20242;-60
2024/01/28 07:51:31;;;;;;;17.10;10.75;;;;;;;;;;5071845;28;20258;-60
2024/01/28 07:53:57;;;;;;;16.30;11.13;;;;;;;;;;5071794;28;20266;-61
2024/01/28 07:56:23;;;;;;;15.38;11.02;;;;;;;;;;5072401;28;20220;-61
2024/01/28 07:58:49;;;;;;;13.98;10.63;;;;;;;;;;5072084;28;20201;-60
2024/01/28 08:01:16;;;;;;;13.15;10.55;;;;;;;;;;5071650;28;20250;-60
2024/01/28 08:03:42;;;;;;;13.05;10.23;;;;;;;;;;5071305;28;20234;-60
2024/01/28 08:06:09;;;;;;;18.23;10.95;;;;;;;;;;5071594;28;20227;-60
2024/01/28 08:08:36;;;;;;;15.27;10.60;;;;;;;;;;5071058;28;20202;-60
2024/01/28 08:11:02;;;;;;;18.08;10.77;;;;;;;;;;5071739;28;20196;-59
2024/01/28 08:13:29;;;;;;;17.42;10.05;;;;;;;;;;5071886;28;20617;-59
2024/01/28 08:16:01;;;;;;;16.60;10.45;;;;;;;;;;5071434;28;20311;-60
2024/01/28 08:18:27;;;;;;;14.65;10.27;;;;;;;;;;5070051;28;20676;-60
2024/01/28 08:20:54;;;;;;;17.45;10.73;;;;;;;;;;5042822;28;20216;-60
2024/01/28 08:23:21;;;;;;;16.73;11.77;;;;;;;;;;5046745;28;20209;-62
2024/01/28 08:25:48;;;;;;;18.15;10.50;;;;;;;;;;5051756;28;20317;-60
2024/01/28 08:28:14;;;;;;;15.82;10.60;;;;;;;;;;5065660;28;20296;-61
2024/01/28 08:30:41;;;;;;;16.33;10.90;;;;;;;;;;5065264;28;20680;-61
2024/01/28 08:33:07;;;;;;;15.10;10.15;;;;;;;;;;5065075;28;20211;-61
2024/01/28 08:35:33;;;;;;;14.93;10.55;;;;;;;;;;5065505;28;20220;-61
2024/01/28 08:37:59;;;;;;;15.13;10.45;;;;;;;;;;5059390;28;20259;-61
2024/01/28 08:40:27;;;;;;;12.88;9.75;;;;;;;;;;5045709;28;20632;-62
2024/01/28 08:42:53;;;;;;;16.60;10.98;;;;;;;;;;5045582;28;20217;-62
2024/01/28 08:45:20;;;;;;;17.50;11.55;;;;;;;;;;5049521;28;20292;-57
2024/01/28 08:47:47;;;;;;;16.55;11.40;;;;;;;;;;5051189;28;20246;-59
2024/01/28 08:50:13;;;;;;;18.15;11.68;;;;;;;;;;5051286;28;20205;-59
2024/01/28 08:52:39;;;;;;;18.05;12.13;;;;;;;;;;5051467;28;20232;-59
2024/01/28 08:55:06;;;;;;;19.85;12.10;;;;;;;;;;5051366;28;20763;-58
2024/01/28 08:57:33;;;;;;;18.25;11.00;;;;;;;;;;5051591;28;20205;-56
2024/01/28 09:00:00;;;;;;;13.20;10.85;;;;;;;;;;5051185;28;20201;-57
2024/01/28 09:02:26;;;;;;;15.77;11.48;;;;;;;;;;5051149;28;20197;-58
2024/01/28 09:04:53;;;;;;;15.15;11.30;;;;;;;;;;5051495;28;20201;-57
2024/01/28 09:07:19;;;;;;;17.08;11.15;;;;;;;;;;5051347;28;20232;-57
2024/01/28 09:09:45;;;;;;;15.00;11.45;;;;;;;;;;5050877;28;20586;-59
2024/01/28 09:12:11;;;;;;;13.80;11.00;;;;;;;;;;5051234;28;20555;-58
2024/01/28 09:14:39;;;;;;;15.55;12.32;;;;;;;;;;5050678;28;20744;-58
2024/01/28 09:17:05;;;;;;;14.55;11.35;;;;;;;;;;5050946;28;20721;-59
2024/01/28 09:19:32;;;;;;;17.02;11.30;;;;;;;;;;5050708;28;20198;-58
2024/01/28 09:21:58;;;;;;;15.00;11.85;;;;;;;;;;5054919;28;20201;-59
2024/01/28 09:24:25;;;;;;;16.33;11.02;;;;;;;;;;5054371;28;20595;-59
2024/01/28 09:26:51;;;;;;;16.38;11.52;;;;;;;;;;5054683;28;20714;-59
2024/01/28 09:29:18;;;;;;;16.15;11.15;;;;;;;;;;5054122;28;20197;-59
2024/01/28 09:31:46;;;;;;;15.55;11.32;;;;;;;;;;5054805;28;20263;-59
2024/01/28 09:34:12;;;;;;;19.83;12.00;;;;;;;;;;5054480;28;20212;-59
2024/01/28 09:36:38;;;;;;;16.02;11.77;;;;;;;;;;5054709;28;20225;-58
2024/01/28 09:39:05;;;;;;;19.60;12.43;;;;;;;;;;5054144;28;20604;-59
2024/01/28 09:41:32;;;;;;;14.70;11.73;;;;;;;;;;5054716;28;20259;-58
2024/01/28 09:43:59;;;;;;;16.23;12.38;;;;;;;;;;5053957;28;20201;-59
2024/01/28 09:46:25;;;;;;;18.45;11.45;;;;;;;;;;5054457;28;20434;-59
2024/01/28 09:48:53;;;;;;;15.82;11.18;;;;;;;;;;5054028;28;20217;-59
2024/01/28 09:51:20;;;;;;;14.73;11.98;;;;;;;;;;5054350;28;20205;-59
2024/01/28 09:53:47;;;;;;;16.65;11.30;;;;;;;;;;5053953;28;20639;-60
2024/01/28 09:56:15;;;;;;;13.93;10.93;;;;;;;;;;5054114;28;20236;-59
2024/01/28 09:58:42;;;;;;;13.52;11.07;;;;;;;;;;5053696;28;20204;-60
2024/01/28 10:01:10;;;;;;;14.00;10.48;;;;;;;;;;5054343;28;20291;-60
2024/01/28 10:03:37;;;;;;;14.35;11.35;;;;;;;;;;5053654;28;20657;-60
2024/01/28 10:06:05;;;;;;;12.93;10.00;;;;;;;;;;5054170;28;20225;-58
2024/01/28 10:08:31;;;;;;;12.63;11.05;;;;;;;;;;5053880;28;20308;-59
2024/01/28 10:11:00;;;;;;;14.18;10.32;;;;;;;;;;5054048;28;20247;-59
2024/01/28 10:13:27;;;;;;;12.25;10.45;;;;;;;;;;5053660;28;20209;-59
2024/01/28 10:15:54;;;;;;;12.25;10.02;;;;;;;;;;5053939;28;20262;-58
2024/01/28 10:18:21;;;;;;;13.32;10.65;;;;;;;;;;5053750;28;20200;-58
2024/01/28 10:20:48;;;;;;;13.80;10.63;;;;;;;;;;5053844;28;20217;-59
2024/01/28 10:23:16;;;;;;;15.15;10.98;;;;;;;;;;5053598;28;20254;-58
2024/01/28 10:25:43;;;;;;;13.38;10.45;;;;;;;;;;5053479;28;20329;-59
2024/01/28 10:28:09;;;;;;;15.93;10.85;;;;;;;;;;5053323;28;20311;-59
2024/01/28 10:30:35;;;;;;;11.43;10.20;;;;;;;;;;5053161;28;20209;-59
2024/01/28 10:33:02;;;;;;;15.90;10.70;;;;;;;;;;5053360;28;20197;-59
2024/01/28 10:35:28;;;;;;;12.65;10.57;;;;;;;;;;5053503;28;20311;-59
2024/01/28 10:37:56;;;;;;;12.63;10.32;;;;;;;;;;5053350;28;20201;-59
2024/01/28 10:40:25;;;;;;;13.27;9.63;;;;;;;;;;5053446;28;20251;-59
2024/01/28 10:42:55;;;;;;;14.00;9.95;;;;;;;;;;5053156;28;20259;-59
2024/01/28 10:45:23;;;;;;;11.05;9.68;;;;;;;;;;5053171;28;20205;-59
2024/01/28 10:47:52;;;;;;;14.23;10.25;;;;;;;;;;5053230;28;20217;-59
2024/01/28 10:50:20;;;;;;;10.93;9.55;;;;;;;;;;5052890;28;20274;-59
2024/01/28 10:52:47;;;;;;;11.50;8.63;;;;;;;;;;5052541;28;20255;-59
2024/01/28 10:55:14;;;;;;;11.55;9.80;;;;;;;;;;5053219;28;20233;-59
2024/01/28 10:57:42;;;;;;;9.40;8.40;;;;;;;;;;5053039;28;20197;-59
2024/01/28 11:00:10;;;;;;;8.85;7.95;;;;;;;;;;5052764;28;20197;-59
2024/01/28 11:02:37;;;;;;;10.35;8.75;;;;;;;;;;5052685;28;20764;-59
2024/01/28 11:05:03;;;;;;;8.52;7.70;;;;;;;;;;5052938;28;20362;-59
2024/01/28 11:07:30;;;;;;;9.88;8.68;;;;;;;;;;5052531;28;20225;-59
2024/01/28 11:09:59;;;;;;;8.85;7.97;;;;;;;;;;5052583;28;20263;-59
2024/01/28 11:12:25;;;;;;;11.98;7.88;;;;;;;;;;5052176;28;20568;-59
2024/01/28 11:14:53;;;;;;;11.30;8.40;;;;;;;;;;5052494;28;20255;-59
2024/01/28 11:17:19;;;;;;;9.32;8.05;;;;;;;;;;5052405;28;20705;-59
2024/01/28 11:19:45;;;;;;;9.20;8.15;;;;;;;;;;5052019;28;20292;-59
2024/01/28 11:22:15;;;;;;;11.77;9.15;;;;;;;;;;5052701;28;20259;-59
2024/01/28 11:24:49;;;;;;;8.82;7.72;;;;;;;;;;5052796;28;20288;-59
2024/01/28 11:27:15;;;;;;;9.15;8.23;;;;;;;;;;5052017;28;20309;-59
2024/01/28 11:29:41;;;;;;;12.55;8.90;;;;;;;;;;5050317;28;20201;-59
2024/01/28 11:32:09;;;;;;;9.65;8.68;;;;;;;;;;5052344;28;20266;-60
2024/01/28 11:34:36;;;;;;;9.15;8.15;;;;;;;;;;5051903;28;20262;-59
2024/01/28 11:37:04;;;;;;;9.13;7.72;;;;;;;;;;5052335;28;20225;-59
2024/01/28 11:39:36;;;;;;;10.18;8.00;;;;;;;;;;5051898;28;20223;-59
2024/01/28 11:42:03;;;;;;;9.40;8.50;;;;;;;;;;5052248;28;20289;-59
2024/01/28 11:44:29;;;;;;;11.45;7.80;;;;;;;;;;5051393;28;20529;-59
2024/01/28 11:46:56;;;;;;;7.85;7.15;;;;;;;;;;5052166;28;20221;-59
2024/01/28 11:49:24;;;;;;;8.90;7.82;;;;;;;;;;5051879;28;20221;-59
2024/01/28 11:51:50;;;;;;;9.60;7.25;;;;;;;;;;5052235;28;20204;-59
2024/01/28 11:54:16;;;;;;;7.70;6.55;;;;;;;;;;5051762;28;20208;-59
2024/01/28 11:56:43;;;;;;;6.90;6.20;;;;;;;;;;5051944;28;20584;-60
2024/01/28 11:59:09;;;;;;;10.85;6.80;;;;;;;;;;5051572;28;20614;-58
2024/01/28 12:01:36;;;;;;;7.63;6.88;;;;;;;;;;5052089;28;20259;-59
2024/01/28 12:04:04;;;;;;;6.82;6.22;;;;;;;;;;5051879;28;20386;-59
2024/01/28 12:06:32;;;;;;;6.45;5.82;;;;;;;;;;5051364;28;20701;-58
2024/01/28 12:09:00;;;;;;;6.18;5.50;;;;;;;;;;5051501;28;20225;-58
2024/01/28 12:11:27;;;;;;;6.57;5.97;;;;;;;;;;5052035;28;20197;-58
2024/01/28 12:13:53;;;;;;;6.03;5.55;;;;;;;;;;5051622;28;20209;-58
2024/01/28 12:16:20;;;;;;;5.28;4.82;;;;;;;;;;5052294;28;20217;-59
2024/01/28 12:18:47;;;;;;;7.70;5.22;;;;;;;;;;5051973;28;20580;-59
2024/01/28 12:21:17;;;;;;;5.10;4.80;;;;;;;;;;5052462;28;20669;-59
2024/01/28 12:23:46;;;;;;;5.45;5.07;;;;;;;;;;5051662;28;20646;-59
2024/01/28 12:26:12;;;;;;;6.53;5.88;;;;;;;;;;5051593;28;20303;-59
2024/01/28 12:28:40;;;;;;;5.65;5.22;;;;;;;;;;5051293;28;20279;-58
2024/01/28 12:31:07;;;;;;;6.38;5.85;;;;;;;;;;5051820;28;20567;-59
2024/01/28 12:33:34;;;;;;;5.43;5.00;;;;;;;;;;5051456;28;20208;-58
2024/01/28 12:36:00;;;;;;;5.50;5.07;;;;;;;;;;5051536;28;20274;-59
2024/01/28 12:38:26;;;;;;;5.32;4.93;;;;;;;;;;5051222;28;20251;-58
2024/01/28 12:40:54;;;;;;;5.60;5.20;;;;;;;;;;5051573;28;20288;-58
2024/01/28 12:43:20;;;;;;;5.68;5.10;;;;;;;;;;5051075;28;20665;-58
2024/01/28 12:45:46;;;;;;;5.57;5.00;;;;;;;;;;5051283;28;20706;-59
2024/01/28 12:48:12;;;;;;;5.75;4.70;;;;;;;;;;5051622;28;20225;-58
2024/01/28 12:50:39;;;;;;;5.07;4.60;;;;;;;;;;5051266;28;20255;-59
2024/01/28 12:53:05;;;;;;;5.43;4.93;;;;;;;;;;5051322;28;20205;-59
2024/01/28 12:55:31;;;;;;;6.07;5.53;;;;;;;;;;5054606;28;20323;-59
2024/01/28 12:57:59;;;;;;;5.65;5.07;;;;;;;;;;5055475;28;20205;-59
2024/01/28 13:00:25;;;;;;;5.95;5.35;;;;;;;;;;5055248;28;20205;-58
2024/01/28 13:02:52;;;;;;;5.88;5.03;;;;;;;;;;5055200;28;20209;-58
2024/01/28 13:05:18;;;;;;;5.10;4.70;;;;;;;;;;5054969;28;20561;-59
2024/01/28 13:07:44;;;;;;;7.40;5.18;;;;;;;;;;5054922;28;20201;-59
2024/01/28 13:10:10;;;;;;;5.05;4.55;;;;;;;;;;5054841;28;20197;-59
2024/01/28 13:12:38;;;;;;;5.95;5.30;;;;;;;;;;5054611;28;20258;-59
2024/01/28 13:15:07;;;;;;;13.23;8.65;;;;;;;;;;5054825;28;20299;-59
2024/01/28 13:17:34;;;;;;;8.68;5.63;;;;;;;;;;5054914;28;20715;-59
2024/01/28 13:20:00;;;;;;;5.13;4.75;;;;;;;;;;5054648;28;20238;-59
2024/01/28 13:22:26;;;;;;;4.97;4.40;;;;;;;;;;5054738;28;20197;-59
2024/01/28 13:24:53;;;;;;;14.63;9.30;;;;;;;;;;5055270;28;20197;-59
2024/01/28 13:27:20;;;;;;;7.75;6.18;;;;;;;;;;5054757;28;20229;-59
2024/01/28 13:29:47;;;;;;;7.07;6.28;;;;;;;;;;5054367;28;20229;-59
2024/01/28 13:32:14;;;;;;;6.35;4.43;;;;;;;;;;5054779;28;20209;-59
2024/01/28 13:34:41;;;;;;;4.75;4.28;;;;;;;;;;5054277;28;20205;-59
2024/01/28 13:37:07;;;;;;;3.88;3.58;;;;;;;;;;5054667;28;20287;-59
2024/01/28 13:39:34;;;;;;;4.82;4.07;;;;;;;;;;5054046;28;20613;-59
2024/01/28 13:42:00;;;;;;;5.82;4.47;;;;;;;;;;5054422;28;20723;-59
2024/01/28 13:44:26;;;;;;;4.32;3.67;;;;;;;;;;5054342;28;20247;-59
2024/01/28 13:46:53;;;;;;;5.03;3.63;;;;;;;;;;5054523;28;20271;-59
2024/01/28 13:49:20;;;;;;;4.35;3.97;;;;;;;;;;5054042;28;20275;-59
2024/01/28 13:51:47;;;;;;;4.38;4.00;;;;;;;;;;5054255;28;20201;-59
2024/01/28 13:54:13;;;;;;;4.18;3.78;;;;;;;;;;5053748;28;20641;-59
2024/01/28 13:56:39;;;;;;;3.88;3.58;;;;;;;;;;5054001;28;20695;-59
2024/01/28 13:59:05;;;;;;;5.35;4.15;;;;;;;;;;5053914;28;20255;-59
2024/01/28 14:01:32;;;;;;;7.28;4.13;;;;;;;;;;5054016;28;20673;-59
2024/01/28 14:03:58;;;;;;;4.88;4.10;;;;;;;;;;5053721;28;20240;-59
2024/01/28 14:06:25;;;;;;;5.45;4.82;;;;;;;;;;5053260;28;20225;-59
2024/01/28 14:08:52;;;;;;;4.95;4.45;;;;;;;;;;5053715;28;20221;-59
2024/01/28 14:11:18;;;;;;;5.50;4.68;;;;;;;;;;5053889;28;20662;-59
2024/01/28 14:13:48;;;;;;;6.72;4.43;;;;;;;;;;5065001;22;20228;-61
2024/01/28 14:16:14;;;;;;;5.15;4.65;;;;;;;;;;5044888;28;20228;-61
2024/01/28 14:18:40;;;;;;;4.32;3.95;;;;;;;;;;5041347;28;20194;-60
2024/01/28 14:21:06;;;;;;;4.78;4.40;;;;;;;;;;5041894;28;20255;-61
2024/01/28 14:23:35;;;;;;;4.28;3.97;;;;;;;;;;5043975;28;20205;-61
2024/01/28 14:26:01;;;;;;;8.68;4.03;;;;;;;;;;5045225;28;20224;-61
2024/01/28 14:28:28;;;;;;;6.10;4.40;;;;;;;;;;5042679;28;20582;-61